sensor_id;sensor_type;location;lat;lon;timestamp;pressure;altitude;pressure_sealevel;temperature;humidity
41218;BME280;26950;50.960;7.138;2024-03-08T00:02:17;100737.22;;;8.62;47.02
41218;BME280;26950;50.960;7.138;2024-03-08T00:04:44;100733.72;;;8.62;46.95
41218;BME280;26950;50.960;7.138;2024-03-08T00:07:11;100725.50;;;8.53;47.19
41218;BME280;26950;50.960;7.138;2024-03-08T00:09:38;100714.50;;;8.61;47.00
41218;BME280;26950;50.960;7.138;2024-03-08T00:12:06;100719.97;;;8.68;46.99
41218;BME280;26950;50.960;7.138;2024-03-08T00:14:35;100714.56;;;8.63;47.02
41218;BME280;26950;50.960;7.138;2024-03-08T00:17:02;100710.22;;;8.63;47.14
41218;BME280;26950;50.960;7.138;2024-03-08T00:19:29;100704.97;;;8.63;47.08
41218;BME280;26950;50.960;7.138;2024-03-08T00:21:55;100699.09;;;8.69;46.97
41218;BME280;26950;50.960;7.138;2024-03-08T00:24:22;100703.56;;;8.73;46.59
41218;BME280;26950;50.960;7.138;2024-03-08T00:26:50;100700.38;;;8.56;47.00
41218;BME280;26950;50.960;7.138;2024-03-08T00:29:18;100696.78;;;8.54;47.13
41218;BME280;26950;50.960;7.138;2024-03-08T00:31:44;100694.25;;;8.56;47.12
41218;BME280;26950;50.960;7.138;2024-03-08T00:34:11;100686.53;;;8.36;47.43
41218;BME280;26950;50.960;7.138;2024-03-08T00:36:37;100690.38;;;8.46;47.50
41218;BME280;26950;50.960;7.138;2024-03-08T00:39:04;100692.16;;;8.47;47.26
41218;BME280;26950;50.960;7.138;2024-03-08T00:41:31;100677.03;;;8.38;47.25
41218;BME280;26950;50.960;7.138;2024-03-08T00:43:58;100673.25;;;8.32;47.44
41218;BME280;26950;50.960;7.138;2024-03-08T00:46:27;100670.50;;;8.29;47.66
41218;BME280;26950;50.960;7.138;2024-03-08T00:48:54;100690.06;;;8.16;48.18
41218;BME280;26950;50.960;7.138;2024-03-08T00:51:21;100676.34;;;8.22;47.89
41218;BME280;26950;50.960;7.138;2024-03-08T00:53:48;100673.50;;;8.16;48.07
41218;BME280;26950;50.960;7.138;2024-03-08T00:56:14;100681.72;;;8.25;47.75
41218;BME280;26950;50.960;7.138;2024-03-08T00:58:41;100670.88;;;8.16;48.18
41218;BME280;26950;50.960;7.138;2024-03-08T01:01:08;100674.47;;;8.18;48.25
41218;BME280;26950;50.960;7.138;2024-03-08T01:03:36;100669.34;;;8.21;47.99
41218;BME280;26950;50.960;7.138;2024-03-08T01:06:03;100657.81;;;8.16;48.34
41218;BME280;26950;50.960;7.138;2024-03-08T01:08:29;100665.25;;;8.05;48.52
41218;BME280;26950;50.960;7.138;2024-03-08T01:10:56;100652.53;;;8.14;48.43
41218;BME280;26950;50.960;7.138;2024-03-08T01:13:23;100655.56;;;8.25;48.19
41218;BME280;26950;50.960;7.138;2024-03-08T01:15:49;100657.22;;;8.23;48.27
41218;BME280;26950;50.960;7.138;2024-03-08T01:18:16;100659.69;;;8.18;48.47
41218;BME280;26950;50.960;7.138;2024-03-08T01:20:43;100648.16;;;8.13;48.51
41218;BME280;26950;50.960;7.138;2024-03-08T01:23:10;100649.50;;;8.03;48.88
41218;BME280;26950;50.960;7.138;2024-03-08T01:25:37;100626.47;;;7.93;48.73
41218;BME280;26950;50.960;7.138;2024-03-08T01:28:04;100638.75;;;7.96;49.02
41218;BME280;26950;50.960;7.138;2024-03-08T01:30:31;100628.72;;;7.84;49.11
41218;BME280;26950;50.960;7.138;2024-03-08T01:32:59;100632.88;;;7.79;49.25
41218;BME280;26950;50.960;7.138;2024-03-08T01:35:26;100621.94;;;7.67;49.70
41218;BME280;26950;50.960;7.138;2024-03-08T01:37:54;100606.06;;;7.61;49.71
41218;BME280;26950;50.960;7.138;2024-03-08T01:40:20;100610.25;;;7.57;50.06
41218;BME280;26950;50.960;7.138;2024-03-08T01:42:47;100613.22;;;7.66;49.90
41218;BME280;26950;50.960;7.138;2024-03-08T01:45:14;100610.50;;;7.63;49.99
41218;BME280;26950;50.960;7.138;2024-03-08T01:47:41;100613.16;;;7.65;50.04
41218;BME280;26950;50.960;7.138;2024-03-08T01:50:08;100612.81;;;7.78;49.87
41218;BME280;26950;50.960;7.138;2024-03-08T01:52:36;100608.41;;;7.77;49.66
41218;BME280;26950;50.960;7.138;2024-03-08T01:55:05;100601.72;;;7.83;49.66
41218;BME280;26950;50.960;7.138;2024-03-08T01:57:33;100605.22;;;7.84;49.66
41218;BME280;26950;50.960;7.138;2024-03-08T02:00:00;100597.31;;;7.82;49.61
41218;BME280;26950;50.960;7.138;2024-03-08T02:02:32;100592.28;;;7.87;49.52
41218;BME280;26950;50.960;7.138;2024-03-08T02:05:00;100587.81;;;7.84;49.40
41218;BME280;26950;50.960;7.138;2024-03-08T02:07:27;100585.50;;;7.92;49.51
41218;BME280;26950;50.960;7.138;2024-03-08T02:09:53;100588.00;;;7.89;49.48
41218;BME280;26950;50.960;7.138;2024-03-08T02:12:21;100583.78;;;7.93;49.36
41218;BME280;26950;50.960;7.138;2024-03-08T02:14:48;100585.34;;;7.88;49.35
41218;BME280;26950;50.960;7.138;2024-03-08T02:17:14;100588.66;;;7.83;49.47
41218;BME280;26950;50.960;7.138;2024-03-08T02:19:40;100590.41;;;7.84;49.44
41218;BME280;26950;50.960;7.138;2024-03-08T02:22:08;100577.06;;;7.77;49.61
41218;BME280;26950;50.960;7.138;2024-03-08T02:24:35;100570.06;;;7.76;49.51
41218;BME280;26950;50.960;7.138;2024-03-08T02:27:01;100582.44;;;7.80;49.38
41218;BME280;26950;50.960;7.138;2024-03-08T02:29:28;100582.91;;;7.70;49.41
41218;BME280;26950;50.960;7.138;2024-03-08T02:31:56;100579.63;;;7.53;49.92
41218;BME280;26950;50.960;7.138;2024-03-08T02:34:22;100588.53;;;7.58;50.02
41218;BME280;26950;50.960;7.138;2024-03-08T02:36:49;100567.88;;;7.64;49.64
41218;BME280;26950;50.960;7.138;2024-03-08T02:39:16;100569.69;;;7.67;49.74
41218;BME280;26950;50.960;7.138;2024-03-08T02:41:45;100568.31;;;7.75;49.55
41218;BME280;26950;50.960;7.138;2024-03-08T02:44:11;100573.53;;;7.75;49.43
41218;BME280;26950;50.960;7.138;2024-03-08T02:46:38;100562.94;;;7.72;49.46
41218;BME280;26950;50.960;7.138;2024-03-08T02:49:04;100562.06;;;7.71;49.66
41218;BME280;26950;50.960;7.138;2024-03-08T02:51:33;100566.88;;;7.83;49.42
41218;BME280;26950;50.960;7.138;2024-03-08T02:54:00;100562.81;;;7.91;49.26
41218;BME280;26950;50.960;7.138;2024-03-08T02:56:28;100562.88;;;7.93;48.91
41218;BME280;26950;50.960;7.138;2024-03-08T02:58:55;100556.53;;;7.86;49.15
41218;BME280;26950;50.960;7.138;2024-03-08T03:01:21;100557.19;;;7.80;49.39
41218;BME280;26950;50.960;7.138;2024-03-08T03:03:48;100547.63;;;7.81;49.23
41218;BME280;26950;50.960;7.138;2024-03-08T03:06:14;100555.72;;;7.65;49.34
41218;BME280;26950;50.960;7.138;2024-03-08T03:08:42;100547.16;;;7.69;49.53
41218;BME280;26950;50.960;7.138;2024-03-08T03:11:10;100540.81;;;7.62;49.72
41218;BME280;26950;50.960;7.138;2024-03-08T03:13:39;100537.84;;;7.53;49.72
41218;BME280;26950;50.960;7.138;2024-03-08T03:16:07;100538.44;;;7.46;50.07
41218;BME280;26950;50.960;7.138;2024-03-08T03:18:35;100541.28;;;7.52;49.71
41218;BME280;26950;50.960;7.138;2024-03-08T03:21:02;100539.81;;;7.36;50.21
41218;BME280;26950;50.960;7.138;2024-03-08T03:23:32;100539.63;;;7.32;50.22
41218;BME280;26950;50.960;7.138;2024-03-08T03:26:00;100531.50;;;7.46;50.12
41218;BME280;26950;50.960;7.138;2024-03-08T03:28:27;100544.44;;;7.43;50.12
41218;BME280;26950;50.960;7.138;2024-03-08T03:30:55;100541.00;;;7.44;50.30
41218;BME280;26950;50.960;7.138;2024-03-08T03:33:23;100538.50;;;7.47;50.27
41218;BME280;26950;50.960;7.138;2024-03-08T03:35:50;100539.50;;;7.51;49.72
41218;BME280;26950;50.960;7.138;2024-03-08T03:38:17;100542.97;;;7.50;50.12
41218;BME280;26950;50.960;7.138;2024-03-08T03:40:45;100535.41;;;7.57;49.81
41218;BME280;26950;50.960;7.138;2024-03-08T03:43:13;100539.63;;;7.54;49.96
41218;BME280;26950;50.960;7.138;2024-03-08T03:45:40;100533.41;;;7.50;50.05
41218;BME280;26950;50.960;7.138;2024-03-08T03:48:08;100537.97;;;7.56;49.95
41218;BME280;26950;50.960;7.138;2024-03-08T03:50:35;100534.09;;;7.46;50.05
41218;BME280;26950;50.960;7.138;2024-03-08T03:53:02;100533.88;;;7.40;50.33
41218;BME280;26950;50.960;7.138;2024-03-08T03:55:29;100536.19;;;7.55;50.13
41218;BME280;26950;50.960;7.138;2024-03-08T03:57:55;100530.25;;;7.59;50.03
41218;BME280;26950;50.960;7.138;2024-03-08T04:00:24;100530.19;;;7.57;50.03
41218;BME280;26950;50.960;7.138;2024-03-08T04:02:52;100521.66;;;7.62;49.64
41218;BME280;26950;50.960;7.138;2024-03-08T04:05:20;100517.59;;;7.47;50.01
41218;BME280;26950;50.960;7.138;2024-03-08T04:07:46;100525.44;;;7.47;50.16
41218;BME280;26950;50.960;7.138;2024-03-08T04:10:14;100524.69;;;7.50;50.06
41218;BME280;26950;50.960;7.138;2024-03-08T04:12:40;100523.19;;;7.56;50.06
41218;BME280;26950;50.960;7.138;2024-03-08T04:15:08;100520.44;;;7.53;50.11
41218;BME280;26950;50.960;7.138;2024-03-08T04:17:36;100520.91;;;7.66;49.99
41218;BME280;26950;50.960;7.138;2024-03-08T04:20:03;100521.75;;;7.65;49.73
41218;BME280;26950;50.960;7.138;2024-03-08T04:22:36;100520.81;;;7.63;49.89
41218;BME280;26950;50.960;7.138;2024-03-08T04:25:03;100508.53;;;7.60;49.81
41218;BME280;26950;50.960;7.138;2024-03-08T04:27:31;100519.66;;;7.54;50.03
41218;BME280;26950;50.960;7.138;2024-03-08T04:29:58;100512.06;;;7.61;49.91
41218;BME280;26950;50.960;7.138;2024-03-08T04:32:24;100511.03;;;7.57;49.97
41218;BME280;26950;50.960;7.138;2024-03-08T04:34:51;100516.03;;;7.51;50.18
41218;BME280;26950;50.960;7.138;2024-03-08T04:37:17;100508.88;;;7.47;50.16
41218;BME280;26950;50.960;7.138;2024-03-08T04:39:48;100511.72;;;7.53;50.07
41218;BME280;26950;50.960;7.138;2024-03-08T04:42:15;100494.00;;;7.44;50.03
41218;BME280;26950;50.960;7.138;2024-03-08T04:44:43;100507.28;;;7.50;50.13
41218;BME280;26950;50.960;7.138;2024-03-08T04:47:09;100497.31;;;7.40;50.26
41218;BME280;26950;50.960;7.138;2024-03-08T04:49:36;100500.75;;;7.39;50.50
41218;BME280;26950;50.960;7.138;2024-03-08T04:52:03;100499.22;;;7.44;50.16
41218;BME280;26950;50.960;7.138;2024-03-08T04:54:29;100499.00;;;7.38;50.33
41218;BME280;26950;50.960;7.138;2024-03-08T04:56:57;100494.22;;;7.28;50.58
41218;BME280;26950;50.960;7.138;2024-03-08T04:59:25;100496.19;;;7.34;50.68
41218;BME280;26950;50.960;7.138;2024-03-08T05:01:51;100491.09;;;7.37;50.56
41218;BME280;26950;50.960;7.138;2024-03-08T05:04:18;100490.09;;;7.33;50.65
41218;BME280;26950;50.960;7.138;2024-03-08T05:06:44;100492.22;;;7.43;50.24
41218;BME280;26950;50.960;7.138;2024-03-08T05:09:11;100472.94;;;7.40;50.51
41218;BME280;26950;50.960;7.138;2024-03-08T05:11:41;100476.97;;;7.32;50.71
41218;BME280;26950;50.960;7.138;2024-03-08T05:14:09;100479.28;;;7.46;50.58
41218;BME280;26950;50.960;7.138;2024-03-08T05:16:36;100472.88;;;7.38;50.44
41218;BME280;26950;50.960;7.138;2024-03-08T05:19:02;100470.03;;;7.32;50.86
41218;BME280;26950;50.960;7.138;2024-03-08T05:21:29;100463.66;;;7.24;51.01
41218;BME280;26950;50.960;7.138;2024-03-08T05:23:55;100468.44;;;7.36;50.71
41218;BME280;26950;50.960;7.138;2024-03-08T05:26:22;100455.44;;;7.37;50.69
41218;BME280;26950;50.960;7.138;2024-03-08T05:28:48;100467.75;;;7.41;50.72
41218;BME280;26950;50.960;7.138;2024-03-08T05:31:19;100465.88;;;7.37;50.79
41218;BME280;26950;50.960;7.138;2024-03-08T05:33:48;100465.41;;;7.25;51.02
41218;BME280;26950;50.960;7.138;2024-03-08T05:36:15;100469.84;;;7.27;51.26
41218;BME280;26950;50.960;7.138;2024-03-08T05:38:41;100469.44;;;7.39;51.10
41218;BME280;26950;50.960;7.138;2024-03-08T05:41:08;100468.75;;;7.43;50.82
41218;BME280;26950;50.960;7.138;2024-03-08T05:43:37;100448.22;;;7.30;50.94
41218;BME280;26950;50.960;7.138;2024-03-08T05:46:03;100463.63;;;7.46;50.67
41218;BME280;26950;50.960;7.138;2024-03-08T05:48:31;100454.56;;;7.37;50.79
41218;BME280;26950;50.960;7.138;2024-03-08T05:50:58;100454.16;;;7.26;51.09
41218;BME280;26950;50.960;7.138;2024-03-08T05:53:24;100444.16;;;7.16;51.53
41218;BME280;26950;50.960;7.138;2024-03-08T05:55:51;100452.88;;;7.39;51.17
41218;BME280;26950;50.960;7.138;2024-03-08T05:58:19;100443.09;;;7.33;51.11
41218;BME280;26950;50.960;7.138;2024-03-08T06:00:45;100439.09;;;7.19;51.65
41218;BME280;26950;50.960;7.138;2024-03-08T06:03:12;100443.16;;;7.35;51.26
41218;BME280;26950;50.960;7.138;2024-03-08T06:05:40;100448.31;;;7.33;51.13
41218;BME280;26950;50.960;7.138;2024-03-08T06:08:07;100447.44;;;7.33;51.11
41218;BME280;26950;50.960;7.138;2024-03-08T06:10:33;100439.88;;;7.40;51.29
41218;BME280;26950;50.960;7.138;2024-03-08T06:13:00;100453.41;;;7.52;51.03
41218;BME280;26950;50.960;7.138;2024-03-08T06:15:27;100431.59;;;7.28;51.40
41218;BME280;26950;50.960;7.138;2024-03-08T06:17:54;100442.03;;;7.50;51.37
41218;BME280;26950;50.960;7.138;2024-03-08T06:20:20;100441.00;;;7.47;51.57
41218;BME280;26950;50.960;7.138;2024-03-08T06:22:52;100450.34;;;7.40;51.51
41218;BME280;26950;50.960;7.138;2024-03-08T06:25:19;100443.94;;;7.54;51.55
41218;BME280;26950;50.960;7.138;2024-03-08T06:27:46;100442.59;;;7.42;51.52
41218;BME280;26950;50.960;7.138;2024-03-08T06:30:13;100446.09;;;7.42;51.58
41218;BME280;26950;50.960;7.138;2024-03-08T06:32:41;100442.06;;;7.52;51.42
41218;BME280;26950;50.960;7.138;2024-03-08T06:35:08;100436.16;;;7.56;51.59
41218;BME280;26950;50.960;7.138;2024-03-08T06:37:35;100440.81;;;7.65;51.22
41218;BME280;26950;50.960;7.138;2024-03-08T06:40:04;100440.56;;;7.58;51.36
41218;BME280;26950;50.960;7.138;2024-03-08T06:42:33;100433.75;;;7.62;51.36
41218;BME280;26950;50.960;7.138;2024-03-08T06:45:00;100438.34;;;7.45;51.57
41218;BME280;26950;50.960;7.138;2024-03-08T06:47:30;100430.19;;;7.36;51.86
41218;BME280;26950;50.960;7.138;2024-03-08T06:49:56;100436.91;;;7.29;52.21
41218;BME280;26950;50.960;7.138;2024-03-08T06:52:23;100434.34;;;7.31;52.42
41218;BME280;26950;50.960;7.138;2024-03-08T06:54:49;100436.34;;;7.38;52.29
41218;BME280;26950;50.960;7.138;2024-03-08T06:57:19;100419.22;;;7.46;52.06
41218;BME280;26950;50.960;7.138;2024-03-08T06:59:47;100429.16;;;7.55;52.28
41218;BME280;26950;50.960;7.138;2024-03-08T07:02:13;100439.13;;;7.67;51.82
41218;BME280;26950;50.960;7.138;2024-03-08T07:04:40;100428.81;;;7.70;51.87
41218;BME280;26950;50.960;7.138;2024-03-08T07:07:06;100426.00;;;7.89;51.31
41218;BME280;26950;50.960;7.138;2024-03-08T07:09:34;100426.22;;;7.95;51.19
41218;BME280;26950;50.960;7.138;2024-03-08T07:12:01;100432.34;;;7.96;51.32
41218;BME280;26950;50.960;7.138;2024-03-08T07:14:29;100430.81;;;7.77;51.52
41218;BME280;26950;50.960;7.138;2024-03-08T07:16:56;100426.34;;;7.98;51.38
41218;BME280;26950;50.960;7.138;2024-03-08T07:19:23;100431.75;;;8.04;51.22
41218;BME280;26950;50.960;7.138;2024-03-08T07:21:49;100420.19;;;8.22;50.83
41218;BME280;26950;50.960;7.138;2024-03-08T07:24:16;100421.13;;;8.24;50.52
41218;BME280;26950;50.960;7.138;2024-03-08T07:27:04;100416.25;;;8.34;50.44
41218;BME280;26950;50.960;7.138;2024-03-08T07:29:32;100418.25;;;8.42;50.38
41218;BME280;26950;50.960;7.138;2024-03-08T07:31:58;100404.69;;;8.53;50.09
41218;BME280;26950;50.960;7.138;2024-03-08T07:34:37;100413.09;;;8.43;50.17
41218;BME280;26950;50.960;7.138;2024-03-08T07:37:05;100406.22;;;8.47;50.44
41218;BME280;26950;50.960;7.138;2024-03-08T07:39:36;100397.50;;;8.46;50.39
41218;BME280;26950;50.960;7.138;2024-03-08T07:42:03;100397.00;;;8.58;50.08
41218;BME280;26950;50.960;7.138;2024-03-08T07:44:33;100383.13;;;8.60;50.26
41218;BME280;26950;50.960;7.138;2024-03-08T07:47:00;100385.31;;;8.74;49.93
41218;BME280;26950;50.960;7.138;2024-03-08T07:49:26;100384.88;;;8.60;49.97
41218;BME280;26950;50.960;7.138;2024-03-08T07:51:53;100368.03;;;8.52;50.50
41218;BME280;26950;50.960;7.138;2024-03-08T07:54:19;100380.09;;;8.74;50.36
41218;BME280;26950;50.960;7.138;2024-03-08T07:56:46;100371.38;;;9.03;49.62
41218;BME280;26950;50.960;7.138;2024-03-08T07:59:13;100383.03;;;8.84;49.69
41218;BME280;26950;50.960;7.138;2024-03-08T08:01:41;100365.84;;;8.93;49.95
41218;BME280;26950;50.960;7.138;2024-03-08T08:04:09;100368.66;;;9.29;49.48
41218;BME280;26950;50.960;7.138;2024-03-08T08:06:38;100367.88;;;9.31;49.30
41218;BME280;26950;50.960;7.138;2024-03-08T08:09:06;100363.91;;;9.45;49.17
41218;BME280;26950;50.960;7.138;2024-03-08T08:11:35;100351.28;;;9.62;48.63
41218;BME280;26950;50.960;7.138;2024-03-08T08:14:01;100355.19;;;9.78;48.34
41218;BME280;26950;50.960;7.138;2024-03-08T08:16:28;100345.31;;;10.01;48.23
41218;BME280;26950;50.960;7.138;2024-03-08T08:18:56;100352.06;;;10.24;46.95
41218;BME280;26950;50.960;7.138;2024-03-08T08:21:22;100345.63;;;10.48;46.42
41218;BME280;26950;50.960;7.138;2024-03-08T08:23:50;100350.78;;;10.43;46.39
41218;BME280;26950;50.960;7.138;2024-03-08T08:26:16;100343.66;;;10.75;45.96
41218;BME280;26950;50.960;7.138;2024-03-08T08:28:43;100328.00;;;11.21;45.52
41218;BME280;26950;50.960;7.138;2024-03-08T08:31:11;100333.22;;;11.63;44.49
41218;BME280;26950;50.960;7.138;2024-03-08T08:33:38;100326.72;;;11.88;43.81
41218;BME280;26950;50.960;7.138;2024-03-08T08:36:07;100323.13;;;11.84;43.46
41218;BME280;26950;50.960;7.138;2024-03-08T08:38:35;100307.78;;;12.10;43.61
41218;BME280;26950;50.960;7.138;2024-03-08T08:41:02;100311.59;;;12.29;42.48
41218;BME280;26950;50.960;7.138;2024-03-08T08:43:28;100303.13;;;12.49;42.66
41218;BME280;26950;50.960;7.138;2024-03-08T08:45:55;100306.44;;;12.35;42.44
41218;BME280;26950;50.960;7.138;2024-03-08T08:48:21;100320.06;;;12.11;42.71
41218;BME280;26950;50.960;7.138;2024-03-08T08:50:49;100297.50;;;12.24;43.12
41218;BME280;26950;50.960;7.138;2024-03-08T08:53:18;100299.44;;;12.37;42.46
41218;BME280;26950;50.960;7.138;2024-03-08T08:55:45;100293.56;;;12.52;42.12
41218;BME280;26950;50.960;7.138;2024-03-08T08:58:11;100286.63;;;12.57;42.36
41218;BME280;26950;50.960;7.138;2024-03-08T09:00:39;100281.78;;;12.89;42.26
41218;BME280;26950;50.960;7.138;2024-03-08T09:03:09;100288.03;;;12.99;41.29
41218;BME280;26950;50.960;7.138;2024-03-08T09:05:37;100283.41;;;12.81;41.18
41218;BME280;26950;50.960;7.138;2024-03-08T09:08:04;100273.44;;;13.22;41.24
41218;BME280;26950;50.960;7.138;2024-03-08T09:10:32;100265.69;;;13.36;40.50
41218;BME280;26950;50.960;7.138;2024-03-08T09:12:59;100277.53;;;13.78;40.58
41218;BME280;26950;50.960;7.138;2024-03-08T09:15:25;100263.63;;;13.96;39.53
41218;BME280;26950;50.960;7.138;2024-03-08T09:17:53;100264.22;;;13.64;39.84
41218;BME280;26950;50.960;7.138;2024-03-08T09:20:20;100270.38;;;13.65;39.65
41218;BME280;26950;50.960;7.138;2024-03-08T09:22:46;100264.47;;;13.93;39.96
41218;BME280;26950;50.960;7.138;2024-03-08T09:25:13;100267.72;;;14.74;38.21
41218;BME280;26950;50.960;7.138;2024-03-08T09:27:41;100264.31;;;15.00;37.82
41218;BME280;26950;50.960;7.138;2024-03-08T09:30:08;100262.53;;;15.00;37.48
41218;BME280;26950;50.960;7.138;2024-03-08T09:32:34;100265.03;;;14.67;37.29
41218;BME280;26950;50.960;7.138;2024-03-08T09:35:02;100261.44;;;14.52;37.84
41218;BME280;26950;50.960;7.138;2024-03-08T09:37:28;100247.13;;;14.24;37.91
41218;BME280;26950;50.960;7.138;2024-03-08T09:39:55;100252.50;;;14.38;38.48
41218;BME280;26950;50.960;7.138;2024-03-08T09:42:24;100249.13;;;14.57;37.80
41218;BME280;26950;50.960;7.138;2024-03-08T09:44:52;100227.13;;;14.55;37.88
41218;BME280;26950;50.960;7.138;2024-03-08T09:47:21;100228.06;;;14.70;38.82
41218;BME280;26950;50.960;7.138;2024-03-08T09:49:54;100230.97;;;15.40;37.21
41218;BME280;26950;50.960;7.138;2024-03-08T09:52:21;100222.22;;;15.88;36.40
41218;BME280;26950;50.960;7.138;2024-03-08T09:54:47;100222.22;;;15.67;36.55
41218;BME280;26950;50.960;7.138;2024-03-08T09:57:15;100215.16;;;15.87;35.90
41218;BME280;26950;50.960;7.138;2024-03-08T09:59:41;100212.47;;;16.19;35.34
41218;BME280;26950;50.960;7.138;2024-03-08T10:02:15;100219.56;;;16.11;34.99
41218;BME280;26950;50.960;7.138;2024-03-08T10:04:43;100208.97;;;16.11;35.30
41218;BME280;26950;50.960;7.138;2024-03-08T10:07:12;100195.75;;;16.01;35.31
41218;BME280;26950;50.960;7.138;2024-03-08T10:09:38;100194.75;;;16.60;34.78
41218;BME280;26950;50.960;7.138;2024-03-08T10:12:07;100199.94;;;16.89;34.32
41218;BME280;26950;50.960;7.138;2024-03-08T10:14:34;100199.84;;;17.07;34.10
41218;BME280;26950;50.960;7.138;2024-03-08T10:17:00;100184.75;;;17.20;34.72
41218;BME280;26950;50.960;7.138;2024-03-08T10:19:28;100191.63;;;17.51;33.48
41218;BME280;26950;50.960;7.138;2024-03-08T10:21:55;100183.63;;;17.53;32.86
41218;BME280;26950;50.960;7.138;2024-03-08T10:24:24;100180.97;;;17.56;32.77
41218;BME280;26950;50.960;7.138;2024-03-08T10:26:52;100177.88;;;18.11;32.25
41218;BME280;26950;50.960;7.138;2024-03-08T10:29:19;100168.16;;;18.09;31.98
41218;BME280;26950;50.960;7.138;2024-03-08T10:31:45;100156.91;;;18.65;31.51
41218;BME280;26950;50.960;7.138;2024-03-08T10:34:12;100151.97;;;19.04;30.75
41218;BME280;26950;50.960;7.138;2024-03-08T10:36:40;100151.28;;;18.93;30.82
41218;BME280;26950;50.960;7.138;2024-03-08T10:39:21;100149.13;;;19.76;29.81
41218;BME280;26950;50.960;7.138;2024-03-08T10:41:53;100114.06;;;20.01;29.46
41218;BME280;26950;50.960;7.138;2024-03-08T10:44:39;100136.25;;;20.49;28.92
41218;BME280;26950;50.960;7.138;2024-03-08T10:47:15;100136.31;;;20.86;27.87
41218;BME280;26950;50.960;7.138;2024-03-08T10:49:51;100129.75;;;21.41;27.54
41218;BME280;26950;50.960;7.138;2024-03-08T10:52:20;100125.41;;;22.07;26.39
41218;BME280;26950;50.960;7.138;2024-03-08T10:54:47;100118.72;;;22.54;25.68
41218;BME280;26950;50.960;7.138;2024-03-08T10:57:17;100119.28;;;22.66;25.58
41218;BME280;26950;50.960;7.138;2024-03-08T10:59:45;100125.56;;;22.65;25.15
41218;BME280;26950;50.960;7.138;2024-03-08T11:02:12;100113.16;;;22.62;24.87
41218;BME280;26950;50.960;7.138;2024-03-08T11:04:38;100124.09;;;22.84;24.77
41218;BME280;26950;50.960;7.138;2024-03-08T11:07:05;100093.66;;;21.61;25.64
41218;BME280;26950;50.960;7.138;2024-03-08T11:09:35;100095.53;;;21.91;26.01
41218;BME280;26950;50.960;7.138;2024-03-08T11:12:20;100086.91;;;22.75;24.95
41218;BME280;26950;50.960;7.138;2024-03-08T11:14:47;100090.47;;;23.33;24.74
41218;BME280;26950;50.960;7.138;2024-03-08T11:17:15;100082.63;;;23.53;23.85
41218;BME280;26950;50.960;7.138;2024-03-08T11:19:46;100078.00;;;23.04;23.96
41218;BME280;26950;50.960;7.138;2024-03-08T11:22:21;100090.38;;;23.08;24.20
41218;BME280;26950;50.960;7.138;2024-03-08T11:24:51;100069.59;;;23.69;22.99
41218;BME280;26950;50.960;7.138;2024-03-08T11:27:17;100056.59;;;23.57;23.30
41218;BME280;26950;50.960;7.138;2024-03-08T11:29:59;100059.88;;;24.16;22.98
41218;BME280;26950;50.960;7.138;2024-03-08T11:32:27;100050.91;;;24.88;22.46
41218;BME280;26950;50.960;7.138;2024-03-08T11:34:55;100056.78;;;26.04;21.99
41218;BME280;26950;50.960;7.138;2024-03-08T11:37:22;100030.06;;;26.78;20.79
41218;BME280;26950;50.960;7.138;2024-03-08T11:39:52;100032.81;;;27.49;20.47
41218;BME280;26950;50.960;7.138;2024-03-08T11:42:24;100022.28;;;28.29;19.57
41218;BME280;26950;50.960;7.138;2024-03-08T11:44:52;100020.25;;;28.82;18.65
41218;BME280;26950;50.960;7.138;2024-03-08T11:47:19;100020.06;;;29.32;18.61
41218;BME280;26950;50.960;7.138;2024-03-08T11:49:45;100029.41;;;28.30;18.70
41218;BME280;26950;50.960;7.138;2024-03-08T11:52:14;100021.78;;;27.19;18.98
41218;BME280;26950;50.960;7.138;2024-03-08T11:54:41;100014.34;;;24.40;21.36
41218;BME280;26950;50.960;7.138;2024-03-08T11:57:09;100016.19;;;24.61;21.82
41218;BME280;26950;50.960;7.138;2024-03-08T11:59:36;100024.03;;;23.95;22.07
41218;BME280;26950;50.960;7.138;2024-03-08T12:02:04;100023.88;;;23.49;22.05
41218;BME280;26950;50.960;7.138;2024-03-08T12:04:32;100019.94;;;23.06;22.85
41218;BME280;26950;50.960;7.138;2024-03-08T12:07:01;100028.53;;;22.59;22.98
41218;BME280;26950;50.960;7.138;2024-03-08T12:09:34;100012.09;;;21.13;24.25
41218;BME280;26950;50.960;7.138;2024-03-08T12:12:01;100031.00;;;20.25;25.49
41218;BME280;26950;50.960;7.138;2024-03-08T12:14:30;100020.00;;;19.00;26.43
41218;BME280;26950;50.960;7.138;2024-03-08T12:16:57;100013.56;;;19.13;27.29
41218;BME280;26950;50.960;7.138;2024-03-08T12:19:26;100002.47;;;19.39;27.04
41218;BME280;26950;50.960;7.138;2024-03-08T12:21:53;100018.75;;;18.62;27.58
41218;BME280;26950;50.960;7.138;2024-03-08T12:24:20;100007.66;;;18.32;28.65
41218;BME280;26950;50.960;7.138;2024-03-08T12:26:47;100014.50;;;18.50;28.37
41218;BME280;26950;50.960;7.138;2024-03-08T12:29:16;100006.66;;;18.40;28.35
41218;BME280;26950;50.960;7.138;2024-03-08T12:31:46;100001.59;;;18.23;28.74
41218;BME280;26950;50.960;7.138;2024-03-08T12:34:13;99995.47;;;18.18;28.70
41218;BME280;26950;50.960;7.138;2024-03-08T12:36:47;99991.78;;;17.54;29.05
41218;BME280;26950;50.960;7.138;2024-03-08T12:39:16;99985.16;;;17.03;30.27
41218;BME280;26950;50.960;7.138;2024-03-08T12:41:43;99987.47;;;17.41;30.28
41218;BME280;26950;50.960;7.138;2024-03-08T12:44:12;99990.22;;;17.32;29.74
41218;BME280;26950;50.960;7.138;2024-03-08T12:46:38;99976.34;;;17.01;29.86
41218;BME280;26950;50.960;7.138;2024-03-08T12:49:09;99962.31;;;16.89;29.83
41218;BME280;26950;50.960;7.138;2024-03-08T12:51:37;99964.09;;;16.87;30.52
41218;BME280;26950;50.960;7.138;2024-03-08T12:54:04;99966.84;;;16.69;30.99
41218;BME280;26950;50.960;7.138;2024-03-08T12:56:33;99964.06;;;16.90;30.94
41218;BME280;26950;50.960;7.138;2024-03-08T12:59:00;99953.78;;;16.44;30.64
41218;BME280;26950;50.960;7.138;2024-03-08T13:01:28;99963.00;;;15.64;31.66